Time;durP1;ratioP1;P1;durP2;ratioP2;P2;SDS_P1;SDS_P2;PMS_P1;PMS_P2;Temp;Humidity;BMP_temperature;BMP_pressure;BME280_temperature;BME280_humidity;BME280_pressure;Samples;Min_cycle;Max_cycle;Signal;HPM_P1;HPM_P2
2022/04/08 00:00:49;;;;;;;;;;;;;;;17.86;55.50;99526.31;2082151;28;19943;-44
2022/04/08 00:01:50;;;;;;;;;;;;;;;17.87;55.40;99525.34;2079576;28;20315;-45
2022/04/08 00:02:50;;;;;;;;;;;;;;;17.85;55.50;99522.75;2083689;28;19917;-45
2022/04/08 00:03:52;;;;;;;;;;;;;;;17.85;55.51;99528.22;2083776;28;19916;-46
2022/04/08 00:04:52;;;;;;;;;;;;;;;17.85;55.43;99517.31;2083675;28;20462;-44
2022/04/08 00:05:54;;;;;;;;;;;;;;;17.84;55.50;99526.50;2082620;28;20095;-45
2022/04/08 00:06:54;;;;;;;;;;;;;;;17.85;55.40;99521.91;2079072;28;19951;-45
2022/04/08 00:07:54;;;;;;;;;;;;;;;17.85;55.55;99524.63;2089668;28;20667;-44
2022/04/08 00:08:55;;;;;;;;;;;;;;;17.84;55.59;99521.06;2090441;28;20815;-45
2022/04/08 00:09:55;;;;;;;;;;;;;;;17.84;55.67;99514.75;2079469;28;21623;-45
2022/04/08 00:10:55;;;;;;;;;;;;;;;17.84;55.36;99518.31;2080201;28;19928;-45
2022/04/08 00:11:57;;;;;;;;;;;;;;;17.84;55.71;99515.59;2083048;28;19923;-45
2022/04/08 00:12:57;;;;;;;;;;;;;;;17.83;55.55;99521.19;2082479;28;19935;-45
2022/04/08 00:13:58;;;;;;;;;;;;;;;17.84;55.46;99514.75;2084566;28;19931;-46
2022/04/08 00:14:59;;;;;;;;;;;;;;;17.82;55.68;99512.16;2078699;28;19928;-46
2022/04/08 00:15:59;;;;;;;;;;;;;;;17.82;55.71;99514.91;2082736;28;20413;-45
2022/04/08 00:17:01;;;;;;;;;;;;;;;17.83;55.64;99513.88;2080204;28;19931;-44
2022/04/08 00:18:02;;;;;;;;;;;;;;;17.83;55.53;99508.41;2082941;28;19921;-46
2022/04/08 00:19:02;;;;;;;;;;;;;;;17.83;55.62;99508.41;2084193;28;20613;-44
2022/04/08 00:20:02;;;;;;;;;;;;;;;17.83;55.62;99508.41;2081950;28;19919;-45
2022/04/08 00:21:03;;;;;;;;;;;;;;;17.83;55.44;99502.97;2080897;28;19951;-45
2022/04/08 00:22:05;;;;;;;;;;;;;;;17.83;55.53;99508.41;2080228;28;19920;-44
2022/04/08 00:23:05;;;;;;;;;;;;;;;17.82;55.53;99493.09;2082919;28;19924;-45
2022/04/08 00:24:07;;;;;;;;;;;;;;;17.83;55.36;99500.22;2082967;28;19924;-45
2022/04/08 00:25:08;;;;;;;;;;;;;;;17.84;55.33;99498.38;2083527;28;20397;-48
2022/04/08 00:26:08;;;;;;;;;;;;;;;17.83;55.48;99502.97;2082242;28;19978;-44
2022/04/08 00:27:08;;;;;;;;;;;;;;;17.83;55.45;99497.50;2084216;28;19942;-45
2022/04/08 00:28:08;;;;;;;;;;;;;;;17.86;55.57;99501.78;2082099;28;19960;-45
2022/04/08 00:29:09;;;;;;;;;;;;;;;17.86;55.45;99501.78;2085084;28;19912;-45
2022/04/08 00:30:09;;;;;;;;;;;;;;;17.87;55.58;99504.38;2083241;28;19921;-45
2022/04/08 00:31:09;;;;;;;;;;;;;;;17.87;55.32;99503.53;2081368;28;19920;-45
2022/04/08 00:32:10;;;;;;;;;;;;;;;17.87;55.32;99508.97;2084062;28;19920;-46
2022/04/08 00:33:11;;;;;;;;;;;;;;;17.86;55.62;99501.78;2080179;28;20241;-45
2022/04/08 00:34:11;;;;;;;;;;;;;;;17.87;55.36;99493.47;2082407;28;19927;-45
2022/04/08 00:35:12;;;;;;;;;;;;;;;17.87;55.36;99487.16;2079176;28;19912;-45
2022/04/08 00:36:12;;;;;;;;;;;;;;;17.86;55.53;99496.34;2082760;28;19921;-45
2022/04/08 00:37:13;;;;;;;;;;;;;;;17.85;55.49;99490.03;2080542;28;20326;-45
2022/04/08 00:38:13;;;;;;;;;;;;;;;17.84;55.69;99493.78;2081760;28;19967;-44
2022/04/08 00:39:13;;;;;;;;;;;;;;;17.84;55.66;99485.59;2082968;28;19948;-44
2022/04/08 00:40:14;;;;;;;;;;;;;;;17.85;55.53;99490.03;2086027;28;19924;-45
2022/04/08 00:41:14;;;;;;;;;;;;;;;17.85;55.45;99495.50;2087498;28;20006;-44
2022/04/08 00:42:14;;;;;;;;;;;;;;;17.83;55.71;99481.16;2083125;28;19916;-44
2022/04/08 00:43:19;;;;;;;;;;;;;;;17.85;55.67;99481.84;2083388;28;20020;-45
2022/04/08 00:44:19;;;;;;;;;;;;;;;17.84;55.57;99482.88;2081130;28;20373;-45
2022/04/08 00:45:20;;;;;;;;;;;;;;;17.85;55.61;99484.59;2080540;28;19912;-45
2022/04/08 00:46:20;;;;;;;;;;;;;;;17.84;55.70;99482.88;2079937;28;19920;-45
2022/04/08 00:47:20;;;;;;;;;;;;;;;17.84;55.55;99488.34;2077876;28;20006;-46
2022/04/08 00:48:21;;;;;;;;;;;;;;;17.85;55.58;99487.31;2082658;28;19993;-45
2022/04/08 00:49:21;;;;;;;;;;;;;;;17.85;55.54;99479.13;2084850;28;19920;-44
2022/04/08 00:50:22;;;;;;;;;;;;;;;17.86;55.41;99486.31;2084463;28;20351;-46
2022/04/08 00:51:22;;;;;;;;;;;;;;;17.86;55.42;99479.97;2079897;28;19963;-44
2022/04/08 00:52:22;;;;;;;;;;;;;;;17.85;55.52;99479.13;2081124;28;20455;-46
2022/04/08 00:53:23;;;;;;;;;;;;;;;17.86;55.49;99486.31;2082679;28;20274;-46
2022/04/08 00:54:24;;;;;;;;;;;;;;;17.87;55.36;99482.56;2082562;28;19973;-45
2022/04/08 00:55:24;;;;;;;;;;;;;;;17.87;55.32;99476.25;2081018;28;19920;-45
2022/04/08 00:56:27;;;;;;;;;;;;;;;17.86;55.34;99469.94;2088726;28;20361;-45
2022/04/08 00:57:28;;;;;;;;;;;;;;;17.86;55.28;99464.50;2086451;28;19925;-44
2022/04/08 00:58:29;;;;;;;;;;;;;;;17.86;55.42;99475.41;2081398;28;19955;-45
2022/04/08 00:59:30;;;;;;;;;;;;;;;17.86;55.41;99469.94;2080930;28;20262;-44
2022/04/08 01:00:32;;;;;;;;;;;;;;;17.86;55.27;99463.63;2083675;28;19920;-44
2022/04/08 01:01:32;;;;;;;;;;;;;;;17.86;55.28;99461.78;2081894;28;19930;-46
2022/04/08 01:02:33;;;;;;;;;;;;;;;17.86;55.39;99464.50;2081793;28;19931;-45
2022/04/08 01:03:33;;;;;;;;;;;;;;;17.86;55.19;99464.50;2080882;28;20394;-44
2022/04/08 01:04:33;;;;;;;;;;;;;;;17.85;55.17;99457.31;2080805;28;19919;-45
2022/04/08 01:05:34;;;;;;;;;;;;;;;17.86;55.17;99467.22;2085986;28;19924;-45
2022/04/08 01:06:34;;;;;;;;;;;;;;;17.87;55.36;99465.34;2082048;28;19920;-45
2022/04/08 01:07:35;;;;;;;;;;;;;;;17.84;55.35;99461.06;2084335;28;19909;-45
2022/04/08 01:08:35;;;;;;;;;;;;;;;17.86;55.24;99469.94;2081794;28;19947;-45
2022/04/08 01:09:36;;;;;;;;;;;;;;;17.84;55.33;99461.06;2082890;28;19921;-45
2022/04/08 01:10:37;;;;;;;;;;;;;;;17.84;55.25;99463.78;2083015;28;19912;-47
2022/04/08 01:11:38;;;;;;;;;;;;;;;17.84;55.51;99463.78;2084600;28;19920;-46
2022/04/08 01:12:38;;;;;;;;;;;;;;;17.83;55.33;99462.06;2084192;28;20391;-44
2022/04/08 01:13:38;;;;;;;;;;;;;;;17.83;55.61;99464.78;2083425;28;19920;-44
2022/04/08 01:14:39;;;;;;;;;;;;;;;17.84;55.47;99460.22;2081724;28;20457;-46
2022/04/08 01:15:39;;;;;;;;;;;;;;;17.83;55.62;99456.63;2084081;28;19959;-45
2022/04/08 01:16:40;;;;;;;;;;;;;;;17.83;55.46;99456.63;2081546;28;19912;-45
2022/04/08 01:17:41;;;;;;;;;;;;;;;17.82;55.56;99452.19;2084366;28;19916;-45
2022/04/08 01:18:41;;;;;;;;;;;;;;;17.82;55.61;99452.19;2081347;28;19916;-45
2022/04/08 01:19:41;;;;;;;;;;;;;;;17.83;55.56;99453.88;2085016;28;19917;-45
2022/04/08 01:20:42;;;;;;;;;;;;;;;17.82;55.52;99456.78;2082458;28;19917;-44
2022/04/08 01:21:42;;;;;;;;;;;;;;;17.81;55.46;99450.50;2080400;28;19916;-45
2022/04/08 01:22:43;;;;;;;;;;;;;;;17.82;55.69;99454.91;2082837;28;19931;-45
2022/04/08 01:23:47;;;;;;;;;;;;;;;17.82;55.39;99446.72;2084565;28;19953;-45
2022/04/08 01:24:49;;;;;;;;;;;;;;;17.83;55.70;99450.31;2082133;28;19920;-45
2022/04/08 01:25:49;;;;;;;;;;;;;;;17.82;55.48;99451.34;2083484;28;19926;-45
2022/04/08 01:26:51;;;;;;;;;;;;;;;17.83;55.68;99447.59;2083346;28;19916;-45
2022/04/08 01:27:52;;;;;;;;;;;;;;;17.82;55.51;99446.72;2081563;28;20971;-45
2022/04/08 01:28:52;;;;;;;;;;;;;;;17.82;55.54;99449.47;2081529;28;19917;-45
2022/04/08 01:29:53;;;;;;;;;;;;;;;17.82;55.38;99449.47;2079076;28;20016;-45
2022/04/08 01:30:54;;;;;;;;;;;;;;;17.82;55.51;99452.19;2083129;28;20054;-47
2022/04/08 01:31:54;;;;;;;;;;;;;;;17.82;55.39;99449.47;2081117;28;19920;-45
2022/04/08 01:32:54;;;;;;;;;;;;;;;17.81;55.40;99445.03;2079359;28;19983;-45
2022/04/08 01:33:55;;;;;;;;;;;;;;;17.82;55.65;99440.44;2081963;28;19920;-45
2022/04/08 01:34:55;;;;;;;;;;;;;;;17.82;55.48;99452.19;2079345;28;19928;-45
2022/04/08 01:35:56;;;;;;;;;;;;;;;17.82;55.52;99446.72;2080065;28;19920;-45
2022/04/08 01:36:56;;;;;;;;;;;;;;;17.81;55.46;99445.03;2076857;28;19925;-45
2022/04/08 01:37:57;;;;;;;;;;;;;;;17.78;55.65;99440.72;2083881;28;19920;-45
2022/04/08 01:38:57;;;;;;;;;;;;;;;17.80;55.64;99443.31;2078857;28;19924;-45
2022/04/08 01:39:57;;;;;;;;;;;;;;;17.80;55.47;99448.75;2077516;28;19975;-44
2022/04/08 01:40:58;;;;;;;;;;;;;;;17.81;55.48;99445.03;2082437;28;19924;-45
2022/04/08 01:41:58;;;;;;;;;;;;;;;17.78;55.77;99446.19;2077312;28;19921;-44
2022/04/08 01:42:58;;;;;;;;;;;;;;;17.79;55.51;99441.56;2085005;28;19916;-46
2022/04/08 01:43:59;;;;;;;;;;;;;;;17.79;55.91;99447.03;2080545;28;19921;-45
2022/04/08 01:44:59;;;;;;;;;;;;;;;17.78;55.55;99435.28;2080236;28;20231;-46
2022/04/08 01:46:00;;;;;;;;;;;;;;;17.78;55.68;99437.13;2084087;28;19952;-45
2022/04/08 01:47:00;;;;;;;;;;;;;;;17.79;55.74;99436.13;2082237;28;19967;-45
2022/04/08 01:48:03;;;;;;;;;;;;;;;17.78;55.82;99432.53;2080440;28;19920;-45
2022/04/08 01:49:03;;;;;;;;;;;;;;;17.79;55.76;99425.22;2080975;28;19986;-47
2022/04/08 01:50:04;;;;;;;;;;;;;;;17.77;55.90;99421.78;2082606;28;19920;-45
2022/04/08 01:51:04;;;;;;;;;;;;;;;17.78;55.61;99424.38;2080539;28;19924;-45
2022/04/08 01:52:04;;;;;;;;;;;;;;;17.78;55.50;99423.47;2078106;28;19963;-45
2022/04/08 01:53:05;;;;;;;;;;;;;;;17.77;55.77;99417.19;2077190;28;20137;-44
2022/04/08 01:54:06;;;;;;;;;;;;;;;17.76;55.68;99414.59;2076068;28;19925;-45
2022/04/08 01:55:06;;;;;;;;;;;;;;;17.78;55.84;99418.03;2083696;28;20780;-45
2022/04/08 01:56:06;;;;;;;;;;;;;;;17.78;55.53;99420.75;2082289;28;19920;-45
2022/04/08 01:57:07;;;;;;;;;;;;;;;17.78;55.69;99426.22;2080484;28;20133;-45
2022/04/08 01:58:07;;;;;;;;;;;;;;;17.78;55.60;99426.22;2082821;28;19927;-45
2022/04/08 01:59:07;;;;;;;;;;;;;;;17.78;55.60;99424.38;2081553;28;19927;-45
2022/04/08 02:00:09;;;;;;;;;;;;;;;17.78;55.58;99424.38;2083600;28;19920;-45
2022/04/08 02:01:09;;;;;;;;;;;;;;;17.78;55.68;99423.47;2081787;28;20172;-45
2022/04/08 02:02:10;;;;;;;;;;;;;;;17.77;55.81;99421.78;2079626;28;19921;-44
2022/04/08 02:03:10;;;;;;;;;;;;;;;17.77;55.47;99417.19;2085343;28;19949;-46
2022/04/08 02:04:10;;;;;;;;;;;;;;;17.78;55.66;99418.91;2078470;28;19924;-44
2022/04/08 02:05:11;;;;;;;;;;;;;;;17.78;55.69;99407.13;2080362;28;19982;-46
2022/04/08 02:06:12;;;;;;;;;;;;;;;17.79;55.52;99414.31;2079740;28;19974;-44
2022/04/08 02:07:12;;;;;;;;;;;;;;;17.79;55.55;99411.59;2079241;28;19927;-45
2022/04/08 02:08:12;;;;;;;;;;;;;;;17.77;55.51;99409.00;2082474;28;19920;-45
2022/04/08 02:09:13;;;;;;;;;;;;;;;17.77;55.57;99397.25;2081591;28;19924;-44
2022/04/08 02:10:13;;;;;;;;;;;;;;;17.76;55.60;99404.59;2083313;28;19991;-44
2022/04/08 02:11:13;;;;;;;;;;;;;;;17.76;55.62;99398.25;2082483;28;19924;-44
2022/04/08 02:12:13;;;;;;;;;;;;;;;17.76;55.83;99403.69;2081522;28;19921;-44
2022/04/08 02:13:14;;;;;;;;;;;;;;;17.77;55.95;99397.25;2081777;28;19924;-44
2022/04/08 02:14:14;;;;;;;;;;;;;;;17.76;55.60;99393.69;2084101;28;19920;-45
2022/04/08 02:15:14;;;;;;;;;;;;;;;17.75;55.67;99396.53;2082540;28;19947;-44
2022/04/08 02:16:15;;;;;;;;;;;;;;;17.74;55.77;99400.31;2083890;28;20123;-45
2022/04/08 02:17:15;;;;;;;;;;;;;;;17.75;55.76;99393.81;2084225;28;19923;-45
2022/04/08 02:18:16;;;;;;;;;;;;;;;17.76;55.78;99403.69;2082194;28;19927;-45
2022/04/08 02:19:16;;;;;;;;;;;;;;;17.75;55.78;99396.53;2078763;28;20320;-45
2022/04/08 02:20:17;;;;;;;;;;;;;;;17.75;55.81;99396.53;2080532;28;19917;-45
2022/04/08 02:21:19;;;;;;;;;;;;;;;17.74;55.81;99392.97;2082744;28;20157;-44
2022/04/08 02:22:20;;;;;;;;;;;;;;;17.74;55.80;99387.53;2081011;28;20243;-46
2022/04/08 02:23:20;;;;;;;;;;;;;;;17.74;55.74;99389.41;2081015;28;20198;-46
2022/04/08 02:24:20;;;;;;;;;;;;;;;17.74;55.77;99383.94;2081928;28;19963;-46
2022/04/08 02:25:21;;;;;;;;;;;;;;;17.74;55.95;99389.41;2080750;28;19932;-44
2022/04/08 02:26:21;;;;;;;;;;;;;;;17.72;55.79;99385.97;2080750;28;20246;-45
2022/04/08 02:27:23;;;;;;;;;;;;;;;17.74;55.62;99389.41;2082155;28;19972;-45
2022/04/08 02:28:23;;;;;;;;;;;;;;;17.74;55.70;99383.94;2081916;28;19951;-44
2022/04/08 02:29:23;;;;;;;;;;;;;;;17.74;55.75;99379.34;2084192;28;20697;-45
2022/04/08 02:30:24;;;;;;;;;;;;;;;17.74;55.87;99383.94;2085560;28;19956;-45
2022/04/08 02:31:24;;;;;;;;;;;;;;;17.74;55.79;99381.22;2082775;28;19920;-45
2022/04/08 02:32:24;;;;;;;;;;;;;;;17.75;55.62;99382.91;2080427;28;20412;-45
2022/04/08 02:33:24;;;;;;;;;;;;;;;17.72;55.81;99375.91;2082194;28;21008;-45
2022/04/08 02:34:25;;;;;;;;;;;;;;;17.75;55.81;99380.19;2085201;28;20649;-45
2022/04/08 02:35:25;;;;;;;;;;;;;;;17.74;55.88;99368.44;2084496;28;20165;-44
2022/04/08 02:36:25;;;;;;;;;;;;;;;17.74;55.90;99373.03;2083495;28;19927;-45
2022/04/08 02:37:26;;;;;;;;;;;;;;;17.74;55.86;99367.59;2083303;28;19924;-44
2022/04/08 02:38:26;;;;;;;;;;;;;;;17.74;55.92;99373.91;2084432;28;20527;-45
2022/04/08 02:39:26;;;;;;;;;;;;;;;17.73;55.70;99371.31;2082814;28;19954;-46
2022/04/08 02:40:26;;;;;;;;;;;;;;;17.72;55.88;99365.00;2084498;28;19966;-45
2022/04/08 02:41:27;;;;;;;;;;;;;;;17.73;55.81;99371.31;2084678;28;19920;-46
2022/04/08 02:42:30;;;;;;;;;;;;;;;17.72;55.81;99369.63;2082203;28;20219;-45
2022/04/08 02:43:30;;;;;;;;;;;;;;;17.73;55.79;99357.69;2083802;28;19924;-45
2022/04/08 02:44:31;;;;;;;;;;;;;;;17.73;55.80;99357.69;2082316;28;20004;-45
2022/04/08 02:45:31;;;;;;;;;;;;;;;17.73;55.88;99352.22;2084744;28;19912;-45
2022/04/08 02:46:31;;;;;;;;;;;;;;;17.73;55.70;99350.34;2081022;28;19927;-45
2022/04/08 02:47:31;;;;;;;;;;;;;;;17.74;55.65;99353.97;2083702;28;19912;-45
2022/04/08 02:48:32;;;;;;;;;;;;;;;17.75;55.86;99358.38;2100098;28;19954;-44
2022/04/08 02:49:32;;;;;;;;;;;;;;;17.73;56.03;99355.81;2097079;28;19912;-44
2022/04/08 02:50:32;;;;;;;;;;;;;;;17.74;55.91;99356.69;2081866;28;19927;-45
2022/04/08 02:51:33;;;;;;;;;;;;;;;17.73;55.87;99354.97;2083107;28;19940;-45
2022/04/08 02:52:33;;;;;;;;;;;;;;;17.74;56.07;99351.22;2100350;27;20007;-45
2022/04/08 02:53:33;;;;;;;;;;;;;;;17.74;56.08;99352.09;2099862;28;19912;-45
2022/04/08 02:54:34;;;;;;;;;;;;;;;17.73;55.98;99349.50;2082115;28;19924;-45
2022/04/08 02:55:35;;;;;;;;;;;;;;;17.73;56.13;99344.06;2083264;28;19924;-44
2022/04/08 02:56:39;;;;;;;;;;;;;;;17.74;56.14;99343.06;2084736;28;20350;-45
2022/04/08 02:57:46;;;;;;;;;;;;;;;17.74;56.02;99341.19;2083121;28;19920;-45
2022/04/08 02:58:49;;;;;;;;;;;;;;;17.74;55.98;99341.19;2084426;28;19971;-44
2022/04/08 02:59:52;;;;;;;;;;;;;;;17.75;56.04;99336.56;2084834;28;20062;-44
2022/04/08 03:00:53;;;;;;;;;;;;;;;17.75;55.76;99331.97;2081273;28;20144;-46
2022/04/08 03:01:53;;;;;;;;;;;;;;;17.77;55.70;99329.09;2082235;28;19938;-45
2022/04/08 03:02:53;;;;;;;;;;;;;;;17.77;55.98;99331.81;2079861;28;19913;-47
2022/04/08 03:03:54;;;;;;;;;;;;;;;17.76;55.97;99332.81;2082112;28;19925;-45
2022/04/08 03:04:54;;;;;;;;;;;;;;;17.77;55.83;99331.81;2084387;28;19920;-45
2022/04/08 03:05:54;;;;;;;;;;;;;;;17.77;55.77;99323.66;2078821;28;19921;-45
2022/04/08 03:06:55;;;;;;;;;;;;;;;17.77;55.61;99326.38;2082959;28;19920;-44
2022/04/08 03:07:55;;;;;;;;;;;;;;;17.77;55.84;99324.50;2082706;28;19913;-45
2022/04/08 03:08:55;;;;;;;;;;;;;;;17.76;55.68;99327.38;2079579;28;19924;-45
2022/04/08 03:09:56;;;;;;;;;;;;;;;17.77;55.68;99323.66;2081463;28;19924;-45
2022/04/08 03:10:57;;;;;;;;;;;;;;;17.77;55.85;99320.91;2083406;28;19924;-45
2022/04/08 03:11:57;;;;;;;;;;;;;;;17.78;55.57;99325.34;2080711;28;19921;-52
2022/04/08 03:12:57;;;;;;;;;;;;;;;17.76;55.57;99317.34;2082450;28;20275;-45
2022/04/08 03:13:59;;;;;;;;;;;;;;;17.78;55.58;99325.34;2080730;28;19924;-45
2022/04/08 03:15:00;;;;;;;;;;;;;;;17.76;55.71;99322.81;2083925;28;20258;-46
2022/04/08 03:16:01;;;;;;;;;;;;;;;17.75;55.54;99320.22;2082438;28;19919;-45
2022/04/08 03:17:01;;;;;;;;;;;;;;;17.76;55.69;99328.25;2079169;28;20062;-45
2022/04/08 03:18:02;;;;;;;;;;;;;;;17.76;55.84;99321.91;2083448;28;19920;-45
2022/04/08 03:19:02;;;;;;;;;;;;;;;17.76;55.76;99319.19;2082697;28;20359;-46
2022/04/08 03:20:03;;;;;;;;;;;;;;;17.76;55.86;99321.91;2085020;28;19942;-46
2022/04/08 03:21:03;;;;;;;;;;;;;;;17.75;55.75;99325.69;2082361;28;19908;-45
2022/04/08 03:22:06;;;;;;;;;;;;;;;17.75;55.77;99317.50;2085665;28;19920;-45
2022/04/08 03:23:06;;;;;;;;;;;;;;;17.74;55.91;99318.53;2082665;28;19919;-45
2022/04/08 03:24:10;;;;;;;;;;;;;;;17.74;55.84;99316.66;2082780;28;19928;-45
2022/04/08 03:25:10;;;;;;;;;;;;;;;17.74;55.70;99319.38;2079558;28;19921;-44
2022/04/08 03:26:11;;;;;;;;;;;;;;;17.74;55.72;99313.94;2083598;28;19924;-46
2022/04/08 03:27:11;;;;;;;;;;;;;;;17.74;55.77;99313.94;2101217;28;19919;-46
2022/04/08 03:28:12;;;;;;;;;;;;;;;17.74;55.77;99318.53;2094029;28;20292;-45
2022/04/08 03:29:12;;;;;;;;;;;;;;;17.75;55.70;99320.22;2085494;28;19965;-45
2022/04/08 03:30:12;;;;;;;;;;;;;;;17.73;55.81;99314.91;2081217;28;20406;-45
2022/04/08 03:31:13;;;;;;;;;;;;;;;17.73;55.82;99316.78;2081025;28;20452;-45
2022/04/08 03:32:13;;;;;;;;;;;;;;;17.74;55.69;99318.53;2085299;28;19926;-45
2022/04/08 03:33:13;;;;;;;;;;;;;;;17.74;55.97;99315.81;2084123;28;19917;-44
2022/04/08 03:34:14;;;;;;;;;;;;;;;17.74;55.81;99315.81;2082804;28;19967;-46
2022/04/08 03:35:15;;;;;;;;;;;;;;;17.74;55.65;99319.38;2084586;28;19927;-45
2022/04/08 03:36:15;;;;;;;;;;;;;;;17.74;55.80;99313.94;2085732;28;20282;-45
2022/04/08 03:37:17;;;;;;;;;;;;;;;17.74;55.85;99310.34;2077760;28;19925;-45
2022/04/08 03:38:18;;;;;;;;;;;;;;;17.74;55.81;99316.66;2085790;28;19934;-45
2022/04/08 03:39:20;;;;;;;;;;;;;;;17.74;55.77;99316.66;2081242;28;19920;-45
2022/04/08 03:40:20;;;;;;;;;;;;;;;17.74;55.65;99316.66;2080924;28;19940;-45
2022/04/08 03:41:20;;;;;;;;;;;;;;;17.74;55.58;99311.19;2078240;28;19921;-44
2022/04/08 03:42:21;;;;;;;;;;;;;;;17.73;55.81;99312.19;2085635;28;19926;-45
2022/04/08 03:43:22;;;;;;;;;;;;;;;17.74;55.88;99307.63;2080901;28;19942;-45
2022/04/08 03:44:22;;;;;;;;;;;;;;;17.73;55.79;99309.47;2081179;28;19921;-45
2022/04/08 03:45:24;;;;;;;;;;;;;;;17.73;55.81;99312.19;2084836;28;19961;-45
2022/04/08 03:46:25;;;;;;;;;;;;;;;17.72;55.71;99301.47;2078880;28;20512;-45
2022/04/08 03:47:25;;;;;;;;;;;;;;;17.73;55.93;99300.44;2082542;28;19920;-45
2022/04/08 03:48:25;;;;;;;;;;;;;;;17.72;56.03;99306.91;2084892;28;19916;-45
2022/04/08 03:49:26;;;;;;;;;;;;;;;17.71;55.76;99307.91;2080390;28;19916;-45
2022/04/08 03:50:27;;;;;;;;;;;;;;;17.71;55.85;99303.34;2080815;28;20222;-46
2022/04/08 03:51:27;;;;;;;;;;;;;;;17.71;55.90;99303.34;2084274;28;19917;-45
2022/04/08 03:52:32;;;;;;;;;;;;;;;17.71;55.92;99303.34;2078515;28;20313;-45
2022/04/08 03:53:32;;;;;;;;;;;;;;;17.71;56.05;99302.47;2083823;28;19921;-45
2022/04/08 03:54:33;;;;;;;;;;;;;;;17.70;55.88;99304.34;2079571;28;19923;-45
2022/04/08 03:55:33;;;;;;;;;;;;;;;17.71;55.91;99302.47;2081611;28;20228;-45
2022/04/08 03:56:34;;;;;;;;;;;;;;;17.72;55.99;99301.47;2085351;28;19916;-45
2022/04/08 03:57:34;;;;;;;;;;;;;;;17.70;55.75;99296.16;2080714;28;20362;-45
2022/04/08 03:58:34;;;;;;;;;;;;;;;17.71;55.92;99297.00;2084282;28;19913;-45
2022/04/08 03:59:35;;;;;;;;;;;;;;;17.70;55.80;99298.03;2078112;28;19913;-44
2022/04/08 04:00:36;;;;;;;;;;;;;;;17.69;55.79;99299.91;2082838;28;19916;-45
2022/04/08 04:01:37;;;;;;;;;;;;;;;17.70;55.92;99298.03;2085095;28;19947;-45
2022/04/08 04:02:37;;;;;;;;;;;;;;;17.71;55.76;99295.16;2084883;28;20556;-45
2022/04/08 04:03:38;;;;;;;;;;;;;;;17.71;55.71;99291.56;2071101;28;19917;-45
2022/04/08 04:04:38;;;;;;;;;;;;;;;17.71;55.87;99297.00;2083697;28;19917;-44
2022/04/08 04:05:38;;;;;;;;;;;;;;;17.71;55.93;99297.00;2079653;28;19917;-46
2022/04/08 04:06:38;;;;;;;;;;;;;;;17.70;55.89;99287.13;2084984;28;19970;-45
2022/04/08 04:07:39;;;;;;;;;;;;;;;17.70;55.97;99288.00;2078170;28;19943;-45
2022/04/08 04:08:39;;;;;;;;;;;;;;;17.71;55.83;99287.00;2082624;28;19913;-45
2022/04/08 04:09:39;;;;;;;;;;;;;;;17.71;56.02;99286.13;2084552;28;20823;-45
2022/04/08 04:10:40;;;;;;;;;;;;;;;17.71;55.79;99291.56;2080461;28;19924;-45
2022/04/08 04:11:40;;;;;;;;;;;;;;;17.71;55.96;99286.13;2085033;28;19925;-45
2022/04/08 04:12:42;;;;;;;;;;;;;;;17.70;55.79;99285.25;2080973;28;19923;-47
2022/04/08 04:13:43;;;;;;;;;;;;;;;17.71;55.76;99280.66;2084073;28;20178;-45
2022/04/08 04:14:43;;;;;;;;;;;;;;;17.72;55.67;99276.94;2086180;28;20051;-45
2022/04/08 04:15:43;;;;;;;;;;;;;;;17.71;55.70;99277.94;2083481;28;19916;-45
2022/04/08 04:16:44;;;;;;;;;;;;;;;17.70;55.86;99281.69;2084623;28;19974;-45
2022/04/08 04:17:44;;;;;;;;;;;;;;;17.70;55.86;99278.97;2083919;28;19912;-46
2022/04/08 04:18:45;;;;;;;;;;;;;;;17.71;55.80;99275.22;2083371;28;19916;-45
2022/04/08 04:19:45;;;;;;;;;;;;;;;17.70;55.74;99273.50;2083542;28;19917;-46
2022/04/08 04:20:45;;;;;;;;;;;;;;;17.70;55.76;99281.69;2082574;28;19924;-45
2022/04/08 04:21:47;;;;;;;;;;;;;;;17.69;55.79;99277.28;2084611;28;19917;-44
2022/04/08 04:22:48;;;;;;;;;;;;;;;17.69;55.79;99277.28;2077522;28;19994;-45
2022/04/08 04:23:48;;;;;;;;;;;;;;;17.69;55.92;99277.28;2083108;28;19920;-45
2022/04/08 04:24:48;;;;;;;;;;;;;;;17.69;55.98;99275.38;2082230;28;19916;-45
2022/04/08 04:25:49;;;;;;;;;;;;;;;17.68;55.93;99281.00;2079342;28;19943;-45
2022/04/08 04:26:49;;;;;;;;;;;;;;;17.68;55.85;99281.00;2079847;28;19939;-45
2022/04/08 04:27:50;;;;;;;;;;;;;;;17.69;55.95;99274.53;2078669;28;19921;-45
2022/04/08 04:28:50;;;;;;;;;;;;;;;17.68;55.84;99278.25;2085608;28;19950;-45
2022/04/08 04:29:50;;;;;;;;;;;;;;;17.68;55.86;99275.53;2081068;28;19970;-45
2022/04/08 04:30:53;;;;;;;;;;;;;;;17.68;55.91;99283.72;2084339;28;20350;-45
2022/04/08 04:31:55;;;;;;;;;;;;;;;17.67;55.88;99279.28;2084973;28;19978;-46
2022/04/08 04:32:56;;;;;;;;;;;;;;;17.67;56.11;99284.75;2080228;28;20139;-46
2022/04/08 04:33:56;;;;;;;;;;;;;;;17.66;55.96;99283.03;2083587;28;19944;-46
2022/04/08 04:34:57;;;;;;;;;;;;;;;17.67;56.01;99282.03;2079048;28;19917;-45
2022/04/08 04:35:57;;;;;;;;;;;;;;;17.67;55.87;99284.75;2082768;28;20400;-45
2022/04/08 04:36:57;;;;;;;;;;;;;;;17.66;56.10;99278.41;2084987;28;19943;-45
2022/04/08 04:37:58;;;;;;;;;;;;;;;17.67;56.02;99282.88;2081579;28;20037;-45
2022/04/08 04:38:58;;;;;;;;;;;;;;;17.67;56.02;99287.47;2084106;28;19917;-45
2022/04/08 04:39:58;;;;;;;;;;;;;;;17.68;56.07;99289.16;2083037;28;19920;-45
2022/04/08 04:40:58;;;;;;;;;;;;;;;17.68;55.80;99286.44;2081045;28;20162;-45
2022/04/08 04:41:59;;;;;;;;;;;;;;;17.67;55.92;99277.41;2078100;28;19916;-45
2022/04/08 04:43:00;;;;;;;;;;;;;;;17.68;55.84;99281.00;2082702;28;20295;-44
2022/04/08 04:44:01;;;;;;;;;;;;;;;17.67;55.87;99284.75;2084179;28;20047;-45
2022/04/08 04:45:01;;;;;;;;;;;;;;;17.67;55.91;99285.59;2079591;28;19917;-45
2022/04/08 04:46:03;;;;;;;;;;;;;;;17.66;55.98;99281.13;2083693;28;19915;-45
2022/04/08 04:47:04;;;;;;;;;;;;;;;17.65;55.92;99275.88;2081061;28;19920;-45
2022/04/08 04:48:05;;;;;;;;;;;;;;;17.66;55.81;99280.28;2078704;28;20039;-45
2022/04/08 04:49:05;;;;;;;;;;;;;;;17.67;56.10;99273.84;2082068;28;19940;-45
2022/04/08 04:50:06;;;;;;;;;;;;;;;17.66;56.15;99283.03;2079791;28;20789;-45
2022/04/08 04:51:06;;;;;;;;;;;;;;;17.64;56.08;99274.13;2081786;28;20163;-45
2022/04/08 04:52:07;;;;;;;;;;;;;;;17.66;56.01;99277.56;2079586;28;20171;-46
2022/04/08 04:53:07;;;;;;;;;;;;;;;17.65;55.94;99264.97;2081096;28;19923;-45
2022/04/08 04:54:07;;;;;;;;;;;;;;;17.65;55.97;99267.69;2081446;28;20028;-45
2022/04/08 04:55:08;;;;;;;;;;;;;;;17.65;55.85;99270.41;2080284;28;19917;-46
2022/04/08 04:56:08;;;;;;;;;;;;;;;17.65;56.11;99271.25;2078203;28;19912;-45
2022/04/08 04:57:09;;;;;;;;;;;;;;;17.64;55.96;99263.25;2082669;28;20640;-45
2022/04/08 04:58:09;;;;;;;;;;;;;;;17.64;56.16;99257.78;2079932;28;20194;-45
2022/04/08 04:59:10;;;;;;;;;;;;;;;17.65;55.83;99259.53;2079881;28;19916;-46
2022/04/08 05:00:10;;;;;;;;;;;;;;;17.65;55.83;99262.25;2078571;28;19982;-46
2022/04/08 05:01:11;;;;;;;;;;;;;;;17.63;56.29;99261.53;2083177;28;20316;-46
2022/04/08 05:02:11;;;;;;;;;;;;;;;17.65;56.12;99264.97;2081767;28;19923;-45
2022/04/08 05:03:13;;;;;;;;;;;;;;;17.65;55.98;99259.53;2084132;28;20284;-46
2022/04/08 05:04:13;;;;;;;;;;;;;;;17.64;56.09;99257.78;2082636;28;19959;-48
2022/04/08 05:05:14;;;;;;;;;;;;;;;17.65;55.99;99264.97;2080004;28;20647;-45
2022/04/08 05:06:14;;;;;;;;;;;;;;;17.65;55.87;99270.41;2083025;28;19920;-45
2022/04/08 05:07:14;;;;;;;;;;;;;;;17.66;55.94;99261.22;2080412;28;20234;-45
2022/04/08 05:08:15;;;;;;;;;;;;;;;17.66;55.95;99261.22;2083539;28;19952;-45
2022/04/08 05:09:15;;;;;;;;;;;;;;;17.67;56.20;99254.75;2078193;28;19921;-45
2022/04/08 05:10:15;;;;;;;;;;;;;;;17.68;56.02;99262.75;2080444;28;20014;-46
2022/04/08 05:11:16;;;;;;;;;;;;;;;17.68;55.99;99264.63;2081849;28;20426;-45
2022/04/08 05:12:16;;;;;;;;;;;;;;;17.69;56.07;99255.47;2082240;28;19920;-46
2022/04/08 05:13:17;;;;;;;;;;;;;;;17.67;55.95;99247.44;2083646;28;20359;-45
2022/04/08 05:14:17;;;;;;;;;;;;;;;17.68;56.18;99248.28;2082941;28;19920;-46
2022/04/08 05:15:18;;;;;;;;;;;;;;;17.69;55.87;99244.56;2080710;28;19973;-46
2022/04/08 05:16:18;;;;;;;;;;;;;;;17.69;55.90;99239.09;2084987;28;20327;-45